sensor_id;sensor_type;location;lat;lon;timestamp;P1;durP1;ratioP1;P2;durP2;ratioP2
7501;SDS011;3792;47.740;7.606;2023-01-29T00:01:49;13.07;;;8.87;;
7501;SDS011;3792;47.740;7.606;2023-01-29T00:04:17;12.03;;;7.87;;
7501;SDS011;3792;47.740;7.606;2023-01-29T00:06:44;10.23;;;8.63;;
7501;SDS011;3792;47.740;7.606;2023-01-29T00:09:11;10.60;;;8.57;;
7501;SDS011;3792;47.740;7.606;2023-01-29T00:11:38;10.03;;;7.93;;
7501;SDS011;3792;47.740;7.606;2023-01-29T00:14:06;12.77;;;8.53;;
7501;SDS011;3792;47.740;7.606;2023-01-29T00:16:33;11.33;;;8.53;;
7501;SDS011;3792;47.740;7.606;2023-01-29T00:19:01;13.40;;;9.30;;
7501;SDS011;3792;47.740;7.606;2023-01-29T00:21:29;11.57;;;8.30;;
7501;SDS011;3792;47.740;7.606;2023-01-29T00:23:56;11.33;;;7.53;;
7501;SDS011;3792;47.740;7.606;2023-01-29T00:26:24;12.40;;;8.80;;
7501;SDS011;3792;47.740;7.606;2023-01-29T00:28:52;10.83;;;8.50;;
7501;SDS011;3792;47.740;7.606;2023-01-29T00:31:21;10.80;;;8.67;;
7501;SDS011;3792;47.740;7.606;2023-01-29T00:33:50;11.37;;;8.70;;
7501;SDS011;3792;47.740;7.606;2023-01-29T00:36:18;12.17;;;9.23;;
7501;SDS011;3792;47.740;7.606;2023-01-29T00:38:46;12.30;;;9.20;;
7501;SDS011;3792;47.740;7.606;2023-01-29T00:41:22;10.27;;;8.67;;
7501;SDS011;3792;47.740;7.606;2023-01-29T00:44:09;12.00;;;8.67;;
7501;SDS011;3792;47.740;7.606;2023-01-29T00:46:53;13.13;;;9.30;;
7501;SDS011;3792;47.740;7.606;2023-01-29T00:49:20;12.20;;;8.80;;
7501;SDS011;3792;47.740;7.606;2023-01-29T00:51:49;12.87;;;9.73;;
7501;SDS011;3792;47.740;7.606;2023-01-29T00:54:29;14.13;;;9.53;;
7501;SDS011;3792;47.740;7.606;2023-01-29T00:56:56;15.23;;;10.37;;
7501;SDS011;3792;47.740;7.606;2023-01-29T00:59:23;13.77;;;10.40;;
7501;SDS011;3792;47.740;7.606;2023-01-29T01:01:50;15.50;;;10.67;;
7501;SDS011;3792;47.740;7.606;2023-01-29T01:04:35;15.83;;;9.93;;
7501;SDS011;3792;47.740;7.606;2023-01-29T01:07:03;13.77;;;10.07;;
7501;SDS011;3792;47.740;7.606;2023-01-29T01:09:31;14.63;;;10.23;;
7501;SDS011;3792;47.740;7.606;2023-01-29T01:12:13;15.43;;;9.73;;
7501;SDS011;3792;47.740;7.606;2023-01-29T01:14:40;15.47;;;10.23;;
7501;SDS011;3792;47.740;7.606;2023-01-29T01:17:08;13.23;;;10.30;;
7501;SDS011;3792;47.740;7.606;2023-01-29T01:19:35;14.73;;;10.20;;
7501;SDS011;3792;47.740;7.606;2023-01-29T01:22:04;15.07;;;10.80;;
7501;SDS011;3792;47.740;7.606;2023-01-29T01:24:31;16.77;;;11.47;;
7501;SDS011;3792;47.740;7.606;2023-01-29T01:26:58;18.60;;;11.90;;
7501;SDS011;3792;47.740;7.606;2023-01-29T01:29:25;19.53;;;12.77;;
7501;SDS011;3792;47.740;7.606;2023-01-29T01:31:52;14.37;;;10.83;;
7501;SDS011;3792;47.740;7.606;2023-01-29T01:34:19;15.13;;;10.60;;
7501;SDS011;3792;47.740;7.606;2023-01-29T01:36:47;14.97;;;10.67;;
7501;SDS011;3792;47.740;7.606;2023-01-29T01:39:15;14.23;;;9.90;;
7501;SDS011;3792;47.740;7.606;2023-01-29T01:41:42;14.57;;;10.67;;
7501;SDS011;3792;47.740;7.606;2023-01-29T01:47:10;15.57;;;10.60;;
7501;SDS011;3792;47.740;7.606;2023-01-29T01:49:37;14.77;;;10.70;;
7501;SDS011;3792;47.740;7.606;2023-01-29T01:52:05;13.93;;;9.73;;
7501;SDS011;3792;47.740;7.606;2023-01-29T01:54:34;12.70;;;9.83;;
7501;SDS011;3792;47.740;7.606;2023-01-29T01:57:02;12.40;;;9.43;;
7501;SDS011;3792;47.740;7.606;2023-01-29T01:59:41;14.03;;;9.93;;
7501;SDS011;3792;47.740;7.606;2023-01-29T02:02:11;13.43;;;9.80;;
7501;SDS011;3792;47.740;7.606;2023-01-29T02:04:57;13.73;;;9.80;;
7501;SDS011;3792;47.740;7.606;2023-01-29T02:07:41;13.57;;;9.93;;
7501;SDS011;3792;47.740;7.606;2023-01-29T02:10:30;12.57;;;9.03;;
7501;SDS011;3792;47.740;7.606;2023-01-29T02:13:02;11.87;;;9.27;;
7501;SDS011;3792;47.740;7.606;2023-01-29T02:15:30;12.93;;;9.43;;
7501;SDS011;3792;47.740;7.606;2023-01-29T02:17:57;15.53;;;10.03;;
7501;SDS011;3792;47.740;7.606;2023-01-29T02:20:25;12.00;;;9.33;;
7501;SDS011;3792;47.740;7.606;2023-01-29T02:26:00;12.50;;;10.03;;
7501;SDS011;3792;47.740;7.606;2023-01-29T02:28:40;15.73;;;9.90;;
7501;SDS011;3792;47.740;7.606;2023-01-29T02:31:15;14.43;;;9.70;;
7501;SDS011;3792;47.740;7.606;2023-01-29T02:33:55;13.63;;;10.13;;
7501;SDS011;3792;47.740;7.606;2023-01-29T02:36:32;14.03;;;10.17;;
7501;SDS011;3792;47.740;7.606;2023-01-29T02:39:07;13.03;;;9.47;;
7501;SDS011;3792;47.740;7.606;2023-01-29T02:41:43;12.57;;;9.03;;
7501;SDS011;3792;47.740;7.606;2023-01-29T02:44:19;15.07;;;10.40;;
7501;SDS011;3792;47.740;7.606;2023-01-29T02:46:51;15.13;;;10.30;;
7501;SDS011;3792;47.740;7.606;2023-01-29T02:49:26;16.57;;;10.87;;
7501;SDS011;3792;47.740;7.606;2023-01-29T02:51:59;16.53;;;11.33;;
7501;SDS011;3792;47.740;7.606;2023-01-29T02:54:32;13.13;;;9.70;;
7501;SDS011;3792;47.740;7.606;2023-01-29T02:57:08;13.23;;;9.47;;
7501;SDS011;3792;47.740;7.606;2023-01-29T02:59:43;13.40;;;10.43;;
7501;SDS011;3792;47.740;7.606;2023-01-29T03:02:14;14.33;;;10.70;;
7501;SDS011;3792;47.740;7.606;2023-01-29T03:04:45;15.37;;;11.00;;
7501;SDS011;3792;47.740;7.606;2023-01-29T03:07:16;16.43;;;11.67;;
7501;SDS011;3792;47.740;7.606;2023-01-29T03:10:02;15.30;;;10.93;;
7501;SDS011;3792;47.740;7.606;2023-01-29T03:12:31;15.13;;;11.17;;
7501;SDS011;3792;47.740;7.606;2023-01-29T03:15:02;13.83;;;10.00;;
7501;SDS011;3792;47.740;7.606;2023-01-29T03:17:42;14.73;;;11.13;;
7501;SDS011;3792;47.740;7.606;2023-01-29T03:20:13;13.50;;;9.83;;
7501;SDS011;3792;47.740;7.606;2023-01-29T03:22:44;14.33;;;10.47;;
7501;SDS011;3792;47.740;7.606;2023-01-29T03:25:16;15.00;;;10.30;;
7501;SDS011;3792;47.740;7.606;2023-01-29T03:28:03;14.90;;;10.03;;
7501;SDS011;3792;47.740;7.606;2023-01-29T03:30:50;14.30;;;10.03;;
7501;SDS011;3792;47.740;7.606;2023-01-29T03:33:39;14.90;;;9.90;;
7501;SDS011;3792;47.740;7.606;2023-01-29T03:36:12;14.67;;;10.43;;
7501;SDS011;3792;47.740;7.606;2023-01-29T03:38:43;14.80;;;10.03;;
7501;SDS011;3792;47.740;7.606;2023-01-29T03:41:13;14.63;;;10.33;;
7501;SDS011;3792;47.740;7.606;2023-01-29T03:43:49;12.67;;;9.53;;
7501;SDS011;3792;47.740;7.606;2023-01-29T03:46:24;15.30;;;9.97;;
7501;SDS011;3792;47.740;7.606;2023-01-29T03:48:57;14.77;;;10.37;;
7501;SDS011;3792;47.740;7.606;2023-01-29T03:51:34;14.23;;;9.40;;
7501;SDS011;3792;47.740;7.606;2023-01-29T03:54:07;15.47;;;10.40;;
7501;SDS011;3792;47.740;7.606;2023-01-29T03:56:48;14.17;;;10.07;;
7501;SDS011;3792;47.740;7.606;2023-01-29T03:59:24;11.87;;;9.37;;
7501;SDS011;3792;47.740;7.606;2023-01-29T04:02:00;15.13;;;10.43;;
7501;SDS011;3792;47.740;7.606;2023-01-29T04:04:31;16.53;;;9.73;;
7501;SDS011;3792;47.740;7.606;2023-01-29T04:07:02;14.60;;;10.47;;
7501;SDS011;3792;47.740;7.606;2023-01-29T04:09:35;16.57;;;11.33;;
7501;SDS011;3792;47.740;7.606;2023-01-29T04:12:06;16.30;;;10.87;;
7501;SDS011;3792;47.740;7.606;2023-01-29T04:14:35;15.77;;;11.77;;
7501;SDS011;3792;47.740;7.606;2023-01-29T04:17:06;14.60;;;10.23;;
7501;SDS011;3792;47.740;7.606;2023-01-29T04:19:37;12.43;;;9.77;;
7501;SDS011;3792;47.740;7.606;2023-01-29T04:22:06;13.63;;;10.43;;
7501;SDS011;3792;47.740;7.606;2023-01-29T04:24:38;15.23;;;11.07;;
7501;SDS011;3792;47.740;7.606;2023-01-29T04:27:10;15.53;;;10.23;;
7501;SDS011;3792;47.740;7.606;2023-01-29T04:29:59;13.70;;;9.90;;
7501;SDS011;3792;47.740;7.606;2023-01-29T04:32:37;16.27;;;11.43;;
7501;SDS011;3792;47.740;7.606;2023-01-29T04:35:14;15.43;;;10.60;;
7501;SDS011;3792;47.740;7.606;2023-01-29T04:37:53;14.87;;;10.80;;
7501;SDS011;3792;47.740;7.606;2023-01-29T04:40:28;13.43;;;10.73;;
7501;SDS011;3792;47.740;7.606;2023-01-29T04:43:03;15.47;;;10.10;;
7501;SDS011;3792;47.740;7.606;2023-01-29T04:45:35;17.03;;;10.47;;
7501;SDS011;3792;47.740;7.606;2023-01-29T04:48:14;16.77;;;11.37;;
7501;SDS011;3792;47.740;7.606;2023-01-29T04:50:48;15.73;;;10.80;;
7501;SDS011;3792;47.740;7.606;2023-01-29T04:53:24;16.87;;;10.30;;
7501;SDS011;3792;47.740;7.606;2023-01-29T04:55:57;16.10;;;11.63;;
7501;SDS011;3792;47.740;7.606;2023-01-29T04:58:31;16.07;;;10.43;;
7501;SDS011;3792;47.740;7.606;2023-01-29T05:01:04;15.83;;;11.83;;
7501;SDS011;3792;47.740;7.606;2023-01-29T05:03:35;16.80;;;11.30;;
7501;SDS011;3792;47.740;7.606;2023-01-29T05:06:05;15.30;;;10.57;;
7501;SDS011;3792;47.740;7.606;2023-01-29T05:08:35;16.70;;;12.73;;
7501;SDS011;3792;47.740;7.606;2023-01-29T05:11:04;19.70;;;13.07;;
7501;SDS011;3792;47.740;7.606;2023-01-29T05:13:31;22.13;;;13.63;;
7501;SDS011;3792;47.740;7.606;2023-01-29T05:16:03;17.97;;;13.53;;
7501;SDS011;3792;47.740;7.606;2023-01-29T05:18:34;18.57;;;11.97;;
7501;SDS011;3792;47.740;7.606;2023-01-29T05:21:04;16.97;;;12.03;;
7501;SDS011;3792;47.740;7.606;2023-01-29T05:23:33;17.00;;;12.57;;
7501;SDS011;3792;47.740;7.606;2023-01-29T05:26:00;16.33;;;11.57;;
7501;SDS011;3792;47.740;7.606;2023-01-29T05:28:28;17.43;;;11.73;;
7501;SDS011;3792;47.740;7.606;2023-01-29T05:30:54;17.70;;;11.57;;
7501;SDS011;3792;47.740;7.606;2023-01-29T05:33:22;16.50;;;11.67;;
7501;SDS011;3792;47.740;7.606;2023-01-29T05:35:51;16.77;;;11.50;;
7501;SDS011;3792;47.740;7.606;2023-01-29T05:38:19;17.53;;;11.40;;
7501;SDS011;3792;47.740;7.606;2023-01-29T05:40:47;16.03;;;12.23;;
7501;SDS011;3792;47.740;7.606;2023-01-29T05:43:15;16.47;;;11.70;;
7501;SDS011;3792;47.740;7.606;2023-01-29T05:45:50;15.93;;;11.87;;
7501;SDS011;3792;47.740;7.606;2023-01-29T05:48:18;19.97;;;12.97;;
7501;SDS011;3792;47.740;7.606;2023-01-29T05:50:45;20.27;;;14.20;;
7501;SDS011;3792;47.740;7.606;2023-01-29T05:53:14;23.87;;;15.50;;
7501;SDS011;3792;47.740;7.606;2023-01-29T05:55:42;20.00;;;12.90;;
7501;SDS011;3792;47.740;7.606;2023-01-29T05:58:10;19.67;;;12.80;;
7501;SDS011;3792;47.740;7.606;2023-01-29T06:00:37;17.40;;;11.73;;
7501;SDS011;3792;47.740;7.606;2023-01-29T06:03:05;21.30;;;14.13;;
7501;SDS011;3792;47.740;7.606;2023-01-29T06:05:32;23.67;;;14.30;;
7501;SDS011;3792;47.740;7.606;2023-01-29T06:08:02;22.30;;;15.03;;
7501;SDS011;3792;47.740;7.606;2023-01-29T06:10:31;43.67;;;25.17;;
7501;SDS011;3792;47.740;7.606;2023-01-29T06:12:58;30.83;;;17.90;;
7501;SDS011;3792;47.740;7.606;2023-01-29T06:15:26;21.40;;;13.67;;
7501;SDS011;3792;47.740;7.606;2023-01-29T06:17:53;21.00;;;14.03;;
7501;SDS011;3792;47.740;7.606;2023-01-29T06:20:20;23.57;;;14.93;;
7501;SDS011;3792;47.740;7.606;2023-01-29T06:22:47;20.80;;;12.73;;
7501;SDS011;3792;47.740;7.606;2023-01-29T06:25:14;18.27;;;12.37;;
7501;SDS011;3792;47.740;7.606;2023-01-29T06:27:43;20.27;;;12.13;;
7501;SDS011;3792;47.740;7.606;2023-01-29T06:30:11;20.43;;;12.53;;
7501;SDS011;3792;47.740;7.606;2023-01-29T06:32:38;16.87;;;11.67;;
7501;SDS011;3792;47.740;7.606;2023-01-29T06:35:05;15.53;;;11.10;;
7501;SDS011;3792;47.740;7.606;2023-01-29T06:37:34;15.50;;;11.33;;
7501;SDS011;3792;47.740;7.606;2023-01-29T06:40:01;15.00;;;10.60;;
7501;SDS011;3792;47.740;7.606;2023-01-29T06:42:28;20.30;;;12.00;;
7501;SDS011;3792;47.740;7.606;2023-01-29T06:44:57;16.73;;;12.37;;
7501;SDS011;3792;47.740;7.606;2023-01-29T06:47:25;21.00;;;12.77;;
7501;SDS011;3792;47.740;7.606;2023-01-29T06:49:53;17.87;;;12.07;;
7501;SDS011;3792;47.740;7.606;2023-01-29T06:52:20;20.10;;;12.67;;
7501;SDS011;3792;47.740;7.606;2023-01-29T06:54:47;18.83;;;13.40;;
7501;SDS011;3792;47.740;7.606;2023-01-29T06:57:14;18.77;;;12.30;;
7501;SDS011;3792;47.740;7.606;2023-01-29T06:59:41;15.10;;;11.47;;
7501;SDS011;3792;47.740;7.606;2023-01-29T07:02:09;16.23;;;11.33;;
7501;SDS011;3792;47.740;7.606;2023-01-29T07:04:38;19.97;;;13.77;;
7501;SDS011;3792;47.740;7.606;2023-01-29T07:07:07;20.43;;;14.30;;
7501;SDS011;3792;47.740;7.606;2023-01-29T07:09:37;18.23;;;13.23;;
7501;SDS011;3792;47.740;7.606;2023-01-29T07:12:05;17.73;;;12.70;;
7501;SDS011;3792;47.740;7.606;2023-01-29T07:14:33;19.97;;;13.30;;
7501;SDS011;3792;47.740;7.606;2023-01-29T07:17:01;20.00;;;13.30;;
7501;SDS011;3792;47.740;7.606;2023-01-29T07:19:29;17.70;;;12.27;;
7501;SDS011;3792;47.740;7.606;2023-01-29T07:21:57;21.57;;;13.50;;
7501;SDS011;3792;47.740;7.606;2023-01-29T07:24:26;19.33;;;13.43;;
7501;SDS011;3792;47.740;7.606;2023-01-29T07:26:53;18.07;;;11.70;;
7501;SDS011;3792;47.740;7.606;2023-01-29T07:29:21;37.00;;;19.77;;
7501;SDS011;3792;47.740;7.606;2023-01-29T07:31:48;40.60;;;22.57;;
7501;SDS011;3792;47.740;7.606;2023-01-29T07:34:15;38.70;;;21.70;;
7501;SDS011;3792;47.740;7.606;2023-01-29T07:36:44;30.67;;;17.50;;
7501;SDS011;3792;47.740;7.606;2023-01-29T07:39:11;24.33;;;15.90;;
7501;SDS011;3792;47.740;7.606;2023-01-29T07:41:39;22.83;;;14.20;;
7501;SDS011;3792;47.740;7.606;2023-01-29T07:44:06;20.27;;;12.93;;
7501;SDS011;3792;47.740;7.606;2023-01-29T07:46:33;17.23;;;12.17;;
7501;SDS011;3792;47.740;7.606;2023-01-29T07:49:01;20.13;;;14.37;;
7501;SDS011;3792;47.740;7.606;2023-01-29T07:51:28;24.90;;;17.07;;
7501;SDS011;3792;47.740;7.606;2023-01-29T07:53:56;20.57;;;13.63;;
7501;SDS011;3792;47.740;7.606;2023-01-29T07:56:23;20.53;;;12.97;;
7501;SDS011;3792;47.740;7.606;2023-01-29T07:58:51;17.97;;;12.60;;
7501;SDS011;3792;47.740;7.606;2023-01-29T08:01:18;16.13;;;12.23;;
7501;SDS011;3792;47.740;7.606;2023-01-29T08:03:45;18.67;;;14.10;;
7501;SDS011;3792;47.740;7.606;2023-01-29T08:06:12;20.67;;;13.80;;
7501;SDS011;3792;47.740;7.606;2023-01-29T08:08:39;20.23;;;14.00;;
7501;SDS011;3792;47.740;7.606;2023-01-29T08:11:09;22.37;;;15.60;;
7501;SDS011;3792;47.740;7.606;2023-01-29T08:13:38;26.23;;;17.47;;
7501;SDS011;3792;47.740;7.606;2023-01-29T08:16:05;24.53;;;16.53;;
7501;SDS011;3792;47.740;7.606;2023-01-29T08:18:33;24.13;;;15.17;;
7501;SDS011;3792;47.740;7.606;2023-01-29T08:21:02;25.40;;;17.60;;
7501;SDS011;3792;47.740;7.606;2023-01-29T08:23:29;25.33;;;16.60;;
7501;SDS011;3792;47.740;7.606;2023-01-29T08:25:56;28.13;;;18.07;;
7501;SDS011;3792;47.740;7.606;2023-01-29T08:28:25;25.07;;;17.03;;
7501;SDS011;3792;47.740;7.606;2023-01-29T08:30:52;31.57;;;20.20;;
7501;SDS011;3792;47.740;7.606;2023-01-29T08:33:19;33.33;;;19.57;;
7501;SDS011;3792;47.740;7.606;2023-01-29T08:35:47;24.57;;;17.10;;
7501;SDS011;3792;47.740;7.606;2023-01-29T08:38:15;20.83;;;14.17;;
7501;SDS011;3792;47.740;7.606;2023-01-29T08:40:42;20.47;;;14.00;;
7501;SDS011;3792;47.740;7.606;2023-01-29T08:43:10;24.50;;;14.57;;
7501;SDS011;3792;47.740;7.606;2023-01-29T08:45:43;24.53;;;17.07;;
7501;SDS011;3792;47.740;7.606;2023-01-29T08:48:13;26.97;;;19.33;;
7501;SDS011;3792;47.740;7.606;2023-01-29T08:50:40;23.37;;;14.87;;
7501;SDS011;3792;47.740;7.606;2023-01-29T08:53:07;23.13;;;15.87;;
7501;SDS011;3792;47.740;7.606;2023-01-29T08:55:35;20.00;;;15.63;;
7501;SDS011;3792;47.740;7.606;2023-01-29T08:58:04;17.10;;;13.03;;
7501;SDS011;3792;47.740;7.606;2023-01-29T09:00:32;21.60;;;15.50;;
7501;SDS011;3792;47.740;7.606;2023-01-29T09:03:01;23.60;;;16.80;;
7501;SDS011;3792;47.740;7.606;2023-01-29T09:05:28;20.63;;;14.60;;
7501;SDS011;3792;47.740;7.606;2023-01-29T09:07:56;22.50;;;13.43;;
7501;SDS011;3792;47.740;7.606;2023-01-29T09:10:23;27.03;;;15.53;;
7501;SDS011;3792;47.740;7.606;2023-01-29T09:12:50;21.80;;;14.80;;
7501;SDS011;3792;47.740;7.606;2023-01-29T09:15:18;22.37;;;15.10;;
7501;SDS011;3792;47.740;7.606;2023-01-29T09:17:45;32.20;;;19.37;;
7501;SDS011;3792;47.740;7.606;2023-01-29T09:20:15;28.37;;;17.93;;
7501;SDS011;3792;47.740;7.606;2023-01-29T09:22:43;33.33;;;18.77;;
7501;SDS011;3792;47.740;7.606;2023-01-29T09:25:10;27.23;;;16.03;;
7501;SDS011;3792;47.740;7.606;2023-01-29T09:27:37;25.83;;;15.90;;
7501;SDS011;3792;47.740;7.606;2023-01-29T09:30:05;33.27;;;17.40;;
7501;SDS011;3792;47.740;7.606;2023-01-29T09:32:33;36.63;;;19.63;;
7501;SDS011;3792;47.740;7.606;2023-01-29T09:35:00;30.27;;;18.20;;
7501;SDS011;3792;47.740;7.606;2023-01-29T09:37:29;20.20;;;14.50;;
7501;SDS011;3792;47.740;7.606;2023-01-29T09:39:56;19.93;;;13.40;;
7501;SDS011;3792;47.740;7.606;2023-01-29T09:42:24;24.43;;;15.60;;
7501;SDS011;3792;47.740;7.606;2023-01-29T09:44:57;28.30;;;17.90;;
7501;SDS011;3792;47.740;7.606;2023-01-29T09:47:28;28.13;;;16.00;;
7501;SDS011;3792;47.740;7.606;2023-01-29T09:50:00;18.37;;;13.07;;
7501;SDS011;3792;47.740;7.606;2023-01-29T09:52:32;29.53;;;18.23;;
7501;SDS011;3792;47.740;7.606;2023-01-29T09:55:04;20.77;;;14.27;;
7501;SDS011;3792;47.740;7.606;2023-01-29T09:57:38;18.40;;;12.03;;
7501;SDS011;3792;47.740;7.606;2023-01-29T10:00:12;17.47;;;11.97;;
7501;SDS011;3792;47.740;7.606;2023-01-29T10:02:51;15.07;;;11.07;;
7501;SDS011;3792;47.740;7.606;2023-01-29T10:05:47;17.70;;;13.00;;
7501;SDS011;3792;47.740;7.606;2023-01-29T10:08:28;17.30;;;12.40;;
7501;SDS011;3792;47.740;7.606;2023-01-29T10:11:07;17.37;;;12.93;;
7501;SDS011;3792;47.740;7.606;2023-01-29T10:13:53;18.33;;;12.93;;
7501;SDS011;3792;47.740;7.606;2023-01-29T10:16:38;14.93;;;11.83;;
7501;SDS011;3792;47.740;7.606;2023-01-29T10:19:19;15.97;;;12.03;;
7501;SDS011;3792;47.740;7.606;2023-01-29T10:25:13;17.07;;;12.93;;
7501;SDS011;3792;47.740;7.606;2023-01-29T10:27:45;18.80;;;13.33;;
7501;SDS011;3792;47.740;7.606;2023-01-29T10:30:20;19.20;;;13.87;;
7501;SDS011;3792;47.740;7.606;2023-01-29T10:32:55;13.83;;;10.73;;
7501;SDS011;3792;47.740;7.606;2023-01-29T10:35:26;15.20;;;10.30;;
7501;SDS011;3792;47.740;7.606;2023-01-29T10:37:57;14.27;;;10.40;;
7501;SDS011;3792;47.740;7.606;2023-01-29T10:40:40;12.97;;;9.40;;
7501;SDS011;3792;47.740;7.606;2023-01-29T10:43:13;12.67;;;9.17;;
7501;SDS011;3792;47.740;7.606;2023-01-29T10:45:48;11.97;;;9.23;;
7501;SDS011;3792;47.740;7.606;2023-01-29T10:48:39;11.33;;;9.23;;
7501;SDS011;3792;47.740;7.606;2023-01-29T10:51:21;11.13;;;9.10;;
7501;SDS011;3792;47.740;7.606;2023-01-29T10:54:04;11.53;;;9.30;;
7501;SDS011;3792;47.740;7.606;2023-01-29T10:56:52;13.50;;;9.47;;
7501;SDS011;3792;47.740;7.606;2023-01-29T10:59:34;10.80;;;9.17;;
7501;SDS011;3792;47.740;7.606;2023-01-29T11:02:11;18.13;;;11.67;;
7501;SDS011;3792;47.740;7.606;2023-01-29T11:04:41;12.33;;;8.93;;
7501;SDS011;3792;47.740;7.606;2023-01-29T11:07:09;10.43;;;8.60;;
7501;SDS011;3792;47.740;7.606;2023-01-29T11:09:38;12.17;;;8.30;;
7501;SDS011;3792;47.740;7.606;2023-01-29T11:12:17;8.07;;;6.80;;
7501;SDS011;3792;47.740;7.606;2023-01-29T11:14:51;6.57;;;5.83;;
7501;SDS011;3792;47.740;7.606;2023-01-29T11:17:23;7.90;;;6.33;;
7501;SDS011;3792;47.740;7.606;2023-01-29T11:19:51;6.90;;;5.67;;
7501;SDS011;3792;47.740;7.606;2023-01-29T11:22:22;7.87;;;6.57;;
7501;SDS011;3792;47.740;7.606;2023-01-29T11:27:41;12.57;;;8.57;;
7501;SDS011;3792;47.740;7.606;2023-01-29T11:30:14;6.93;;;5.63;;
7501;SDS011;3792;47.740;7.606;2023-01-29T11:32:48;6.03;;;5.23;;
7501;SDS011;3792;47.740;7.606;2023-01-29T11:35:19;5.70;;;5.20;;
7501;SDS011;3792;47.740;7.606;2023-01-29T11:37:49;6.57;;;5.77;;
7501;SDS011;3792;47.740;7.606;2023-01-29T11:40:37;6.57;;;5.53;;
7501;SDS011;3792;47.740;7.606;2023-01-29T11:45:58;8.27;;;6.70;;
7501;SDS011;3792;47.740;7.606;2023-01-29T11:48:32;7.77;;;6.73;;
7501;SDS011;3792;47.740;7.606;2023-01-29T11:51:05;8.73;;;6.67;;
7501;SDS011;3792;47.740;7.606;2023-01-29T11:53:37;7.63;;;5.87;;
7501;SDS011;3792;47.740;7.606;2023-01-29T11:56:14;8.83;;;7.00;;
7501;SDS011;3792;47.740;7.606;2023-01-29T11:58:45;9.90;;;7.50;;
7501;SDS011;3792;47.740;7.606;2023-01-29T12:01:14;9.63;;;7.27;;
7501;SDS011;3792;47.740;7.606;2023-01-29T12:03:48;10.53;;;7.40;;
7501;SDS011;3792;47.740;7.606;2023-01-29T12:06:18;7.87;;;6.63;;
7501;SDS011;3792;47.740;7.606;2023-01-29T12:08:52;7.73;;;6.33;;
7501;SDS011;3792;47.740;7.606;2023-01-29T12:11:26;8.73;;;5.60;;
7501;SDS011;3792;47.740;7.606;2023-01-29T12:13:57;11.00;;;9.00;;
7501;SDS011;3792;47.740;7.606;2023-01-29T12:16:27;9.63;;;6.93;;
7501;SDS011;3792;47.740;7.606;2023-01-29T12:19:02;8.00;;;6.73;;
7501;SDS011;3792;47.740;7.606;2023-01-29T12:21:36;12.80;;;10.00;;
7501;SDS011;3792;47.740;7.606;2023-01-29T12:24:10;8.20;;;6.37;;
7501;SDS011;3792;47.740;7.606;2023-01-29T12:26:46;7.23;;;6.37;;
7501;SDS011;3792;47.740;7.606;2023-01-29T12:29:24;8.60;;;6.53;;
7501;SDS011;3792;47.740;7.606;2023-01-29T12:32:02;7.70;;;6.03;;
7501;SDS011;3792;47.740;7.606;2023-01-29T12:34:36;7.23;;;6.17;;
7501;SDS011;3792;47.740;7.606;2023-01-29T12:37:12;7.67;;;6.70;;
7501;SDS011;3792;47.740;7.606;2023-01-29T12:39:46;8.30;;;6.40;;
7501;SDS011;3792;47.740;7.606;2023-01-29T12:42:16;8.87;;;6.60;;
7501;SDS011;3792;47.740;7.606;2023-01-29T12:44:49;6.90;;;6.20;;
7501;SDS011;3792;47.740;7.606;2023-01-29T12:47:19;8.50;;;5.83;;
7501;SDS011;3792;47.740;7.606;2023-01-29T12:49:50;6.17;;;5.20;;
7501;SDS011;3792;47.740;7.606;2023-01-29T12:52:20;7.03;;;5.63;;
7501;SDS011;3792;47.740;7.606;2023-01-29T12:54:54;7.97;;;6.07;;
7501;SDS011;3792;47.740;7.606;2023-01-29T12:57:25;9.50;;;7.43;;
7501;SDS011;3792;47.740;7.606;2023-01-29T13:00:00;7.80;;;5.87;;
7501;SDS011;3792;47.740;7.606;2023-01-29T13:02:31;7.30;;;5.97;;
7501;SDS011;3792;47.740;7.606;2023-01-29T13:05:04;7.93;;;5.70;;
7501;SDS011;3792;47.740;7.606;2023-01-29T13:07:41;9.87;;;8.07;;
7501;SDS011;3792;47.740;7.606;2023-01-29T13:10:14;9.23;;;6.73;;
7501;SDS011;3792;47.740;7.606;2023-01-29T13:12:47;8.57;;;6.50;;
7501;SDS011;3792;47.740;7.606;2023-01-29T13:15:24;8.77;;;6.70;;
7501;SDS011;3792;47.740;7.606;2023-01-29T13:17:55;7.73;;;6.07;;
7501;SDS011;3792;47.740;7.606;2023-01-29T13:20:28;8.00;;;6.07;;
7501;SDS011;3792;47.740;7.606;2023-01-29T13:23:00;8.03;;;6.87;;
7501;SDS011;3792;47.740;7.606;2023-01-29T13:25:31;8.87;;;7.20;;
7501;SDS011;3792;47.740;7.606;2023-01-29T13:27:58;6.67;;;5.80;;
7501;SDS011;3792;47.740;7.606;2023-01-29T13:30:28;8.03;;;6.90;;
7501;SDS011;3792;47.740;7.606;2023-01-29T13:32:57;8.97;;;6.73;;
7501;SDS011;3792;47.740;7.606;2023-01-29T13:35:34;13.23;;;6.93;;
7501;SDS011;3792;47.740;7.606;2023-01-29T13:38:03;9.13;;;6.60;;
7501;SDS011;3792;47.740;7.606;2023-01-29T13:40:48;12.00;;;7.40;;
7501;SDS011;3792;47.740;7.606;2023-01-29T13:43:17;7.30;;;6.33;;
7501;SDS011;3792;47.740;7.606;2023-01-29T13:45:47;8.47;;;6.47;;
7501;SDS011;3792;47.740;7.606;2023-01-29T13:48:20;7.87;;;5.90;;
7501;SDS011;3792;47.740;7.606;2023-01-29T13:50:50;7.07;;;5.87;;
7501;SDS011;3792;47.740;7.606;2023-01-29T13:53:21;10.00;;;6.27;;
7501;SDS011;3792;47.740;7.606;2023-01-29T13:55:50;7.57;;;6.20;;
7501;SDS011;3792;47.740;7.606;2023-01-29T13:58:18;6.93;;;6.00;;
7501;SDS011;3792;47.740;7.606;2023-01-29T14:04:23;11.50;;;6.87;;
7501;SDS011;3792;47.740;7.606;2023-01-29T14:06:53;8.33;;;6.50;;
7501;SDS011;3792;47.740;7.606;2023-01-29T14:09:31;8.10;;;6.30;;
7501;SDS011;3792;47.740;7.606;2023-01-29T14:12:32;7.60;;;6.80;;
7501;SDS011;3792;47.740;7.606;2023-01-29T14:17:58;11.87;;;7.97;;
7501;SDS011;3792;47.740;7.606;2023-01-29T14:20:49;10.50;;;8.03;;
7501;SDS011;3792;47.740;7.606;2023-01-29T14:23:21;8.80;;;7.43;;
7501;SDS011;3792;47.740;7.606;2023-01-29T14:25:54;11.30;;;7.63;;
7501;SDS011;3792;47.740;7.606;2023-01-29T14:28:25;10.47;;;8.30;;
7501;SDS011;3792;47.740;7.606;2023-01-29T14:30:55;11.07;;;8.50;;
7501;SDS011;3792;47.740;7.606;2023-01-29T14:33:24;12.57;;;9.23;;
7501;SDS011;3792;47.740;7.606;2023-01-29T14:36:02;9.80;;;7.20;;
7501;SDS011;3792;47.740;7.606;2023-01-29T14:38:32;10.93;;;8.33;;
7501;SDS011;3792;47.740;7.606;2023-01-29T14:41:04;10.70;;;8.37;;
7501;SDS011;3792;47.740;7.606;2023-01-29T14:43:40;9.50;;;7.50;;
7501;SDS011;3792;47.740;7.606;2023-01-29T14:49:08;9.80;;;7.87;;
7501;SDS011;3792;47.740;7.606;2023-01-29T14:51:37;10.47;;;7.73;;
7501;SDS011;3792;47.740;7.606;2023-01-29T14:54:16;12.07;;;8.13;;
7501;SDS011;3792;47.740;7.606;2023-01-29T14:56:57;10.03;;;7.63;;
7501;SDS011;3792;47.740;7.606;2023-01-29T14:59:29;9.50;;;7.77;;
7501;SDS011;3792;47.740;7.606;2023-01-29T15:02:03;7.97;;;7.00;;
7501;SDS011;3792;47.740;7.606;2023-01-29T15:04:40;9.90;;;7.50;;
7501;SDS011;3792;47.740;7.606;2023-01-29T15:07:16;10.83;;;7.97;;
7501;SDS011;3792;47.740;7.606;2023-01-29T15:09:51;10.20;;;7.10;;
7501;SDS011;3792;47.740;7.606;2023-01-29T15:12:24;10.30;;;7.60;;
7501;SDS011;3792;47.740;7.606;2023-01-29T15:15:02;9.40;;;7.37;;
7501;SDS011;3792;47.740;7.606;2023-01-29T15:17:38;9.77;;;7.67;;
7501;SDS011;3792;47.740;7.606;2023-01-29T15:20:27;11.13;;;7.97;;
7501;SDS011;3792;47.740;7.606;2023-01-29T15:22:57;12.27;;;8.03;;
7501;SDS011;3792;47.740;7.606;2023-01-29T15:25:25;15.20;;;8.83;;
7501;SDS011;3792;47.740;7.606;2023-01-29T15:27:58;10.70;;;7.27;;
7501;SDS011;3792;47.740;7.606;2023-01-29T15:30:31;8.77;;;6.80;;
7501;SDS011;3792;47.740;7.606;2023-01-29T15:32:59;9.13;;;7.33;;
7501;SDS011;3792;47.740;7.606;2023-01-29T15:35:28;9.47;;;7.67;;
7501;SDS011;3792;47.740;7.606;2023-01-29T15:38:02;11.23;;;8.03;;
7501;SDS011;3792;47.740;7.606;2023-01-29T15:40:31;10.30;;;7.70;;
7501;SDS011;3792;47.740;7.606;2023-01-29T15:42:59;11.17;;;8.63;;
7501;SDS011;3792;47.740;7.606;2023-01-29T15:45:27;11.50;;;9.20;;
7501;SDS011;3792;47.740;7.606;2023-01-29T15:48:00;10.27;;;7.50;;